createdAt,value
2019-05-30T00:01:05.316Z,99221.59
2019-05-30T00:06:11.726Z,99224.96
2019-05-30T00:11:17.064Z,99215.83
2019-05-30T00:16:22.234Z,99220.20
2019-05-30T00:21:27.503Z,99232.33
2019-05-30T00:26:33.939Z,99235.38
2019-05-30T00:31:39.611Z,99238.19
2019-05-30T00:36:45.883Z,99244.12
2019-05-30T00:41:51.105Z,99245.33
2019-05-30T00:46:56.318Z,99236.66
2019-05-30T00:52:02.630Z,99236.14
2019-05-30T00:57:07.958Z,99236.61
2019-05-30T01:02:13.272Z,99234.90
2019-05-30T01:07:18.468Z,99237.70
2019-05-30T01:12:24.812Z,99227.22
2019-05-30T01:17:30.076Z,99233.16
2019-05-30T01:22:35.245Z,99232.32
2019-05-30T01:27:40.423Z,99232.17
2019-05-30T01:32:45.633Z,99233.63
2019-05-30T01:37:51.271Z,99242.94
2019-05-30T01:42:57.785Z,99237.59
2019-05-30T01:48:04.714Z,99237.05
2019-05-30T01:53:10.371Z,99238.23
2019-05-30T01:58:15.859Z,99237.92
2019-05-30T02:03:21.111Z,99235.33
2019-05-30T02:08:26.274Z,99236.47
2019-05-30T02:13:31.450Z,99232.67
2019-05-30T02:18:36.981Z,99235.30
2019-05-30T02:23:42.527Z,99237.09
2019-05-30T02:28:47.988Z,99235.46
2019-05-30T02:33:53.230Z,99248.45
2019-05-30T02:38:58.398Z,99248.16
2019-05-30T02:44:05.290Z,99256.30
2019-05-30T02:49:13.087Z,99254.13
2019-05-30T02:54:17.387Z,99257.09
2019-05-30T02:59:22.593Z,99255.88
2019-05-30T03:04:28.913Z,99257.92
2019-05-30T03:09:34.051Z,99260.75
2019-05-30T03:14:39.399Z,99260.42
2019-05-30T03:19:44.583Z,99269.08
2019-05-30T03:24:49.693Z,99268.11
2019-05-30T03:29:55.020Z,99271.66
2019-05-30T03:35:00.490Z,99270.70
2019-05-30T03:40:06.161Z,99273.38
2019-05-30T03:45:15.741Z,99279.47
2019-05-30T03:50:21.754Z,99281.91
2019-05-30T03:55:30.172Z,99279.61
2019-05-30T04:00:42.735Z,99284.37
2019-05-30T04:05:52.628Z,99279.03
2019-05-30T04:11:00.683Z,99281.20
2019-05-30T04:16:06.956Z,99279.91
2019-05-30T04:21:14.155Z,99278.54
2019-05-30T04:26:19.823Z,99278.58
2019-05-30T04:31:25.011Z,99278.51
2019-05-30T04:36:30.490Z,99281.51
2019-05-30T04:41:35.633Z,99278.42
2019-05-30T04:46:41.140Z,99280.36
2019-05-30T04:51:46.425Z,99291.23
2019-05-30T04:56:51.577Z,99289.73
2019-05-30T05:01:57.255Z,99302.47
2019-05-30T05:07:02.382Z,99303.89
2019-05-30T05:12:07.964Z,99292.39
2019-05-30T05:17:14.610Z,99308.37
2019-05-30T05:22:21.160Z,99296.36
2019-05-30T05:27:26.309Z,99295.56
2019-05-30T05:32:31.644Z,99302.17
2019-05-30T05:37:37.869Z,99297.20
2019-05-30T05:42:43.474Z,99305.52
2019-05-30T05:47:48.944Z,99297.34
2019-05-30T05:52:54.169Z,99303.69
2019-05-30T05:58:04.175Z,99300.75
2019-05-30T06:03:08.099Z,99300.22
2019-05-30T06:08:13.362Z,99303.13
2019-05-30T06:13:18.729Z,99299.84
2019-05-30T06:18:24.313Z,99304.27
2019-05-30T06:23:29.520Z,99303.19
2019-05-30T06:28:34.738Z,99295.94
2019-05-30T06:33:40.107Z,99299.61
2019-05-30T06:38:45.331Z,99302.06
2019-05-30T06:43:50.601Z,99305.92
2019-05-30T06:48:55.840Z,99302.92
2019-05-30T06:54:01.099Z,99306.27
2019-05-30T06:59:07.698Z,99307.94
2019-05-30T07:04:13.385Z,99306.16
2019-05-30T07:09:18.935Z,99291.56
2019-05-30T07:14:25.197Z,99294.94
2019-05-30T07:19:31.621Z,99296.53
2019-05-30T07:24:37.078Z,99296.27
2019-05-30T07:29:42.615Z,99297.89
2019-05-30T07:34:47.862Z,99297.17
2019-05-30T07:39:53.190Z,99300.13
2019-05-30T07:44:58.509Z,99296.99
2019-05-30T07:50:03.873Z,99299.08
2019-05-30T07:55:10.923Z,99297.33
2019-05-30T08:00:17.239Z,99285.94
2019-05-30T08:05:24.533Z,99291.97
2019-05-30T08:10:29.901Z,99290.38
2019-05-30T08:15:38.832Z,99282.97
2019-05-30T08:20:42.512Z,99285.22
2019-05-30T08:25:47.733Z,99281.19
2019-05-30T08:30:56.570Z,99278.66
2019-05-30T08:36:00.273Z,99281.53
2019-05-30T08:41:05.599Z,99275.91
2019-05-30T08:46:10.825Z,99281.11
2019-05-30T08:51:16.449Z,99273.67
2019-05-30T08:56:21.732Z,99269.23
2019-05-30T09:01:27.028Z,99273.64
2019-05-30T09:06:32.372Z,99266.80
2019-05-30T09:11:38.926Z,99259.42
2019-05-30T09:16:46.516Z,99256.06
2019-05-30T09:21:51.958Z,99261.09
2019-05-30T09:26:57.186Z,99252.56
2019-05-30T09:32:02.831Z,99244.39
2019-05-30T09:37:08.453Z,99243.68
2019-05-30T09:42:13.699Z,99241.11
2019-05-30T09:47:18.917Z,99231.73
2019-05-30T09:52:24.151Z,99231.87
2019-05-30T09:57:30.103Z,99227.40
2019-05-30T10:02:35.456Z,99225.48
2019-05-30T10:07:43.573Z,99226.16
2019-05-30T10:12:50.227Z,99226.61
2019-05-30T10:17:56.867Z,99228.70
2019-05-30T10:23:03.701Z,99214.95
2019-05-30T10:28:09.181Z,99220.34
2019-05-30T10:33:15.030Z,99217.58
2019-05-30T10:38:20.355Z,99217.83
2019-05-30T10:43:25.583Z,99213.25
2019-05-30T10:48:31.043Z,99209.01
2019-05-30T10:53:37.625Z,99196.11
2019-05-30T10:58:43.957Z,99186.67
2019-05-30T11:03:50.365Z,99185.15
2019-05-30T11:08:58.579Z,99176.20
2019-05-30T11:14:04.126Z,99179.58
2019-05-30T11:19:09.364Z,99168.16
2019-05-30T11:24:14.842Z,99162.24
2019-05-30T11:29:20.066Z,99155.59
2019-05-30T11:34:25.438Z,99160.54
2019-05-30T11:39:31.734Z,99159.58
2019-05-30T11:44:37.407Z,99149.44
2019-05-30T11:49:43.961Z,99139.19
2019-05-30T11:54:49.839Z,99148.36
2019-05-30T11:59:56.207Z,99138.55
2019-05-30T12:05:01.516Z,99141.84
2019-05-30T12:10:07.657Z,99126.23
2019-05-30T12:15:13.129Z,99133.54
2019-05-30T12:20:19.266Z,99138.45
2019-05-30T12:25:24.526Z,99126.00
2019-05-30T12:30:29.940Z,99123.50
2019-05-30T12:35:35.704Z,99123.09
2019-05-30T12:40:41.711Z,99123.03
2019-05-30T12:45:46.996Z,99121.81
2019-05-30T12:50:53.183Z,99115.59
2019-05-30T12:55:58.570Z,99112.17
2019-05-30T13:01:04.532Z,99114.12
2019-05-30T13:06:09.804Z,99124.27
2019-05-30T13:11:15.042Z,99119.23
2019-05-30T13:16:20.402Z,99121.99
2019-05-30T13:21:25.634Z,99115.05
2019-05-30T13:26:30.898Z,99114.55
2019-05-30T13:31:36.933Z,99114.83
2019-05-30T13:36:42.596Z,99110.99
2019-05-30T13:41:48.242Z,99105.33
2019-05-30T13:46:53.485Z,99109.14
2019-05-30T13:51:59.026Z,99102.27
2019-05-30T13:57:05.765Z,99095.64
2019-05-30T14:02:12.252Z,99096.62
2019-05-30T14:07:17.828Z,99100.98
2019-05-30T14:12:23.868Z,99094.42
2019-05-30T14:17:29.131Z,99086.67
2019-05-30T14:22:35.068Z,99104.61
2019-05-30T14:27:40.473Z,99100.53
2019-05-30T14:32:46.145Z,99093.87
2019-05-30T14:37:51.381Z,99098.29
2019-05-30T14:42:56.656Z,99096.30
2019-05-30T14:48:02.323Z,99101.87
2019-05-30T14:53:08.748Z,99103.13
2019-05-30T14:58:14.013Z,99097.25
2019-05-30T15:03:19.384Z,99094.52
2019-05-30T15:08:24.622Z,99087.58
2019-05-30T15:13:30.140Z,99083.06
2019-05-30T15:18:35.491Z,99084.08
2019-05-30T15:23:41.822Z,99095.00
2019-05-30T15:28:47.067Z,99078.33
2019-05-30T15:33:52.360Z,99074.20
2019-05-30T15:38:57.615Z,99075.45
2019-05-30T15:44:02.948Z,99076.37
2019-05-30T15:49:08.248Z,99072.14
2019-05-30T15:54:15.054Z,99080.55
2019-05-30T15:59:20.599Z,99082.43
2019-05-30T16:04:25.928Z,99086.23
2019-05-30T16:09:46.373Z,99074.02
2019-05-30T16:14:40.725Z,99081.57
2019-05-30T16:19:45.941Z,99088.08
2019-05-30T16:24:52.209Z,99089.38
2019-05-30T16:29:57.755Z,99077.74
2019-05-30T16:35:02.951Z,99092.41
2019-05-30T16:40:08.493Z,99089.83
2019-05-30T16:45:18.654Z,99084.24
2019-05-30T16:50:23.609Z,99096.35
2019-05-30T16:55:29.906Z,99085.89
2019-05-30T17:00:35.296Z,99087.64
2019-05-30T17:05:40.708Z,99097.00
2019-05-30T17:10:46.962Z,99093.75
2019-05-30T17:15:52.523Z,99107.22
2019-05-30T17:20:57.791Z,99111.75
2019-05-30T17:26:03.176Z,99104.80
2019-05-30T17:31:08.508Z,99109.58
2019-05-30T17:36:14.018Z,99105.78
2019-05-30T17:41:19.241Z,99109.68
2019-05-30T17:46:25.747Z,99110.14
2019-05-30T17:51:32.110Z,99111.11
2019-05-30T17:56:38.355Z,99119.87
2019-05-30T18:01:43.603Z,99122.73
2019-05-30T18:06:49.231Z,99124.27
2019-05-30T18:11:54.465Z,99125.13
2019-05-30T18:16:59.810Z,99126.14
2019-05-30T18:22:05.065Z,99135.06
2019-05-30T18:27:10.277Z,99135.73
2019-05-30T18:32:15.542Z,99138.39
2019-05-30T18:37:22.176Z,99138.69
2019-05-30T18:42:27.506Z,99132.94
2019-05-30T18:47:33.847Z,99130.12
2019-05-30T18:52:39.075Z,99140.34
2019-05-30T18:57:47.443Z,99137.51
2019-05-30T19:02:53.029Z,99134.70
2019-05-30T19:07:58.259Z,99140.75
2019-05-30T19:13:03.813Z,99132.17
2019-05-30T19:18:10.235Z,99142.13
2019-05-30T19:23:15.622Z,99151.41
2019-05-30T19:28:20.846Z,99152.97
2019-05-30T19:33:26.677Z,99157.07
2019-05-30T19:38:33.264Z,99154.75
2019-05-30T19:43:38.939Z,99162.91
2019-05-30T19:48:44.223Z,99168.55
2019-05-30T19:53:49.452Z,99173.37
2019-05-30T19:58:54.692Z,99182.94
2019-05-30T20:03:59.932Z,99185.80
2019-05-30T20:09:07.857Z,99181.54
2019-05-30T20:14:13.184Z,99181.87
2019-05-30T20:19:18.459Z,99184.05
2019-05-30T20:24:23.682Z,99182.84
2019-05-30T20:29:29.329Z,99174.34
2019-05-30T20:34:34.903Z,99179.96
2019-05-30T20:39:40.840Z,99187.40
2019-05-30T20:44:47.192Z,99192.87
2019-05-30T20:49:52.802Z,99195.80
2019-05-30T20:54:59.005Z,99192.41
2019-05-30T21:00:05.012Z,99203.13
2019-05-30T21:05:13.294Z,99204.34
2019-05-30T21:10:19.514Z,99206.05
2019-05-30T21:15:25.062Z,99209.94
2019-05-30T21:20:30.286Z,99206.04
2019-05-30T21:25:37.369Z,99213.48
2019-05-30T21:30:43.298Z,99213.32
2019-05-30T21:35:48.734Z,99207.89
2019-05-30T21:40:53.915Z,99205.33
2019-05-30T21:45:59.155Z,99212.64
2019-05-30T21:51:04.409Z,99207.36
2019-05-30T21:56:12.813Z,99209.41
2019-05-30T22:01:34.726Z,99208.72
2019-05-30T22:06:40.840Z,99215.52
2019-05-30T22:11:46.180Z,99207.40
2019-05-30T22:16:52.196Z,99215.55
2019-05-30T22:21:57.578Z,99211.97
2019-05-30T22:27:02.841Z,99211.48
2019-05-30T22:32:08.086Z,99208.58
2019-05-30T22:37:13.326Z,99213.19
2019-05-30T22:42:18.540Z,99213.03
2019-05-30T22:47:23.758Z,99210.45
2019-05-30T22:52:29.397Z,99202.80
2019-05-30T22:57:34.595Z,99196.70
2019-05-30T23:02:40.683Z,99201.80
2019-05-30T23:07:45.907Z,99210.13
2019-05-30T23:12:51.897Z,99202.63
2019-05-30T23:17:57.185Z,99205.68
2019-05-30T23:23:02.334Z,99198.59
2019-05-30T23:28:08.175Z,99199.95
2019-05-30T23:33:14.442Z,99201.12
2019-05-30T23:38:20.068Z,99206.55
2019-05-30T23:43:26.376Z,99199.45
2019-05-30T23:48:31.607Z,99201.16
2019-05-30T23:53:37.657Z,99193.50
2019-05-30T23:58:43.238Z,99193.69
